createdAt,value
2023-02-13T00:03:01.494Z,101715.15
2023-02-13T00:06:24.133Z,101712.17
2023-02-13T00:09:50.959Z,101710.27
2023-02-13T00:13:12.961Z,101716.70
2023-02-13T00:16:34.822Z,101721.93
2023-02-13T00:19:56.648Z,101715.84
2023-02-13T00:23:18.426Z,101706.77
2023-02-13T00:26:49.144Z,101705.57
2023-02-13T00:30:11.407Z,101702.05
2023-02-13T00:33:35.803Z,101701.34
2023-02-13T00:36:57.663Z,101693.66
2023-02-13T00:40:22.051Z,101698.55
2023-02-13T00:43:47.581Z,101702.55
2023-02-13T00:47:19.307Z,101706.99
2023-02-13T00:50:41.133Z,101709.39
2023-02-13T00:54:04.918Z,101707.45
2023-02-13T00:57:26.702Z,101702.09
2023-02-13T01:00:48.607Z,101697.77
2023-02-13T01:04:10.630Z,101699.33
2023-02-13T01:07:32.531Z,101713.27
2023-02-13T01:10:54.912Z,101709.80
2023-02-13T01:14:16.821Z,101705.45
2023-02-13T01:17:39.837Z,101703.54
2023-02-13T01:21:04.997Z,101701.11
2023-02-13T01:24:30.151Z,101697.99
2023-02-13T01:27:53.716Z,101695.00
2023-02-13T01:31:16.098Z,101694.83
2023-02-13T01:34:38.000Z,101687.35
2023-02-13T01:37:59.765Z,101682.14
2023-02-13T01:41:22.424Z,101688.73
2023-02-13T01:44:55.058Z,101689.76
2023-02-13T01:48:19.629Z,101691.36
2023-02-13T01:52:13.806Z,101686.63
2023-02-13T01:55:51.385Z,101688.48
2023-02-13T01:59:18.913Z,101690.05
2023-02-13T02:02:49.438Z,101690.38
2023-02-13T02:06:18.437Z,101694.09
2023-02-13T02:09:42.799Z,101694.26
2023-02-13T02:13:20.135Z,101690.38
2023-02-13T02:16:45.501Z,101696.34
2023-02-13T02:20:26.866Z,101695.95
2023-02-13T02:23:54.667Z,101694.21
2023-02-13T02:27:26.845Z,101695.40
2023-02-13T02:30:54.873Z,101696.27
2023-02-13T02:34:45.839Z,101690.70
2023-02-13T02:38:07.656Z,101687.88
2023-02-13T02:41:52.569Z,101685.38
2023-02-13T02:45:36.187Z,101688.73
2023-02-13T02:49:18.547Z,101691.67
2023-02-13T02:52:45.797Z,101695.52
2023-02-13T02:56:27.308Z,101696.55
2023-02-13T03:00:08.417Z,101702.13
2023-02-13T03:03:49.816Z,101708.25
2023-02-13T03:07:16.886Z,101706.48
2023-02-13T03:10:58.212Z,101705.91
2023-02-13T03:14:21.554Z,101707.98
2023-02-13T03:18:02.707Z,101704.16
2023-02-13T03:21:50.921Z,101706.45
2023-02-13T03:25:12.699Z,101706.96
2023-02-13T03:28:59.385Z,101701.23
2023-02-13T03:32:25.499Z,101690.57
2023-02-13T03:36:12.664Z,101694.91
2023-02-13T03:40:04.040Z,101689.84
2023-02-13T03:43:26.675Z,101688.96
2023-02-13T03:46:50.539Z,101695.41
2023-02-13T03:50:13.222Z,101693.49
2023-02-13T03:53:40.822Z,101690.35
2023-02-13T03:57:21.139Z,101690.68
2023-02-13T04:00:46.614Z,101694.86
2023-02-13T04:04:12.274Z,101695.87
2023-02-13T04:07:35.599Z,101685.87
2023-02-13T04:11:12.164Z,101681.16
2023-02-13T04:14:57.967Z,101686.20
2023-02-13T04:18:34.157Z,101686.49
2023-02-13T04:21:58.156Z,101688.94
2023-02-13T04:25:20.205Z,101690.34
2023-02-13T04:28:42.024Z,101688.09
2023-02-13T04:32:03.971Z,101694.04
2023-02-13T04:35:25.930Z,101692.23
2023-02-13T04:38:47.832Z,101696.05
2023-02-13T04:42:11.140Z,101699.02
2023-02-13T04:45:32.954Z,101696.38
2023-02-13T04:48:54.712Z,101695.17
2023-02-13T04:52:16.684Z,101697.23
2023-02-13T04:55:44.727Z,101698.63
2023-02-13T04:59:06.548Z,101700.71
2023-02-13T05:02:28.385Z,101695.86
2023-02-13T05:05:51.260Z,101689.23
2023-02-13T05:09:13.120Z,101686.80
2023-02-13T05:12:44.964Z,101682.60
2023-02-13T05:16:07.160Z,101681.54
2023-02-13T05:19:29.217Z,101682.92
2023-02-13T05:23:12.209Z,101685.22
2023-02-13T05:26:34.069Z,101691.83
2023-02-13T05:29:56.004Z,101693.05
2023-02-13T05:33:17.850Z,101691.67
2023-02-13T05:36:50.316Z,101694.45
2023-02-13T05:40:13.576Z,101698.83
2023-02-13T05:43:35.333Z,101697.05
2023-02-13T05:46:57.429Z,101698.45
2023-02-13T05:53:56.144Z,101707.85
2023-02-13T05:57:17.994Z,101714.98
2023-02-13T06:00:39.835Z,101718.66
2023-02-13T06:04:03.877Z,101718.85
2023-02-13T06:07:25.928Z,101716.38
2023-02-13T06:10:48.517Z,101714.98
2023-02-13T06:14:14.015Z,101721.79
2023-02-13T06:17:38.423Z,101714.69
2023-02-13T06:21:00.291Z,101713.28
2023-02-13T06:24:25.919Z,101705.30
2023-02-13T06:27:47.853Z,101704.11
2023-02-13T06:31:09.769Z,101703.95
2023-02-13T06:34:34.205Z,101710.91
2023-02-13T06:37:55.981Z,101714.91
2023-02-13T06:41:17.811Z,101715.08
2023-02-13T06:44:39.594Z,101723.77
2023-02-13T06:48:01.866Z,101717.54
2023-02-13T06:51:23.725Z,101722.94
2023-02-13T06:54:47.940Z,101724.99
2023-02-13T06:58:12.639Z,101724.15
2023-02-13T07:01:34.440Z,101728.54
2023-02-13T07:05:06.587Z,101727.52
2023-02-13T07:08:28.500Z,101723.91
2023-02-13T07:11:53.346Z,101714.27
2023-02-13T07:15:25.725Z,101710.05
2023-02-13T07:18:47.527Z,101712.34
2023-02-13T07:22:16.492Z,101715.09
2023-02-13T07:25:38.222Z,101714.20
2023-02-13T07:29:11.552Z,101719.14
2023-02-13T07:32:39.187Z,101717.02
2023-02-13T07:36:04.095Z,101718.56
2023-02-13T07:39:27.942Z,101728.70
2023-02-13T07:46:45.901Z,101736.48
2023-02-13T07:50:08.783Z,101737.94
2023-02-13T07:53:33.962Z,101732.05
2023-02-13T07:57:04.759Z,101726.49
2023-02-13T08:00:32.353Z,101727.85
2023-02-13T08:03:54.207Z,101726.26
2023-02-13T08:07:26.193Z,101729.39
2023-02-13T08:11:25.224Z,101725.05
2023-02-13T08:14:56.440Z,101729.16
2023-02-13T08:18:20.539Z,101725.32
2023-02-13T08:21:46.167Z,101713.29
2023-02-13T08:25:11.181Z,101708.27
2023-02-13T08:28:33.132Z,101707.20
2023-02-13T08:31:55.248Z,101709.14
2023-02-13T08:35:17.256Z,101710.10
2023-02-13T08:42:05.903Z,101707.64
2023-02-13T08:45:28.091Z,101705.48
2023-02-13T08:48:50.324Z,101699.71
2023-02-13T08:52:12.215Z,101699.65
2023-02-13T08:55:34.328Z,101696.95
2023-02-13T08:58:56.187Z,101693.35
2023-02-13T09:02:18.041Z,101692.30
2023-02-13T09:05:39.852Z,101694.09
2023-02-13T09:09:02.114Z,101693.49
2023-02-13T09:12:23.996Z,101692.27
2023-02-13T09:15:46.058Z,101695.86
2023-02-13T09:19:07.821Z,101689.88
2023-02-13T09:22:30.746Z,101692.54
2023-02-13T09:25:52.895Z,101700.64
2023-02-13T09:29:15.131Z,101701.61
2023-02-13T09:32:37.793Z,101700.40
2023-02-13T09:35:59.774Z,101699.17
2023-02-13T09:39:21.817Z,101699.55
2023-02-13T09:42:43.997Z,101702.26
2023-02-13T09:46:13.224Z,101697.09
2023-02-13T09:49:39.278Z,101696.80
2023-02-13T09:53:01.553Z,101688.98
2023-02-13T09:56:40.535Z,101690.27
2023-02-13T10:00:23.976Z,101687.30
2023-02-13T10:04:15.032Z,101690.39
2023-02-13T10:07:49.365Z,101691.41
2023-02-13T10:11:36.027Z,101698.54
2023-02-13T10:15:23.749Z,101704.95
2023-02-13T10:18:56.233Z,101707.58
2023-02-13T10:22:22.960Z,101707.58
2023-02-13T10:26:04.467Z,101707.45
2023-02-13T10:30:09.542Z,101704.27
2023-02-13T10:33:39.421Z,101706.79
2023-02-13T10:37:09.679Z,101698.36
2023-02-13T10:40:33.270Z,101698.18
2023-02-13T10:44:29.265Z,101688.81
2023-02-13T10:48:19.416Z,101682.16
2023-02-13T10:52:06.692Z,101682.04
2023-02-13T10:56:17.111Z,101672.99
2023-02-13T10:59:44.966Z,101670.21
2023-02-13T11:03:17.482Z,101676.88
2023-02-13T11:06:46.837Z,101680.84
2023-02-13T11:10:18.310Z,101677.30
2023-02-13T11:13:42.452Z,101677.79
2023-02-13T11:17:06.673Z,101671.39
2023-02-13T11:20:33.023Z,101664.64
2023-02-13T11:23:56.409Z,101662.13
2023-02-13T11:27:24.757Z,101666.65
2023-02-13T11:30:49.039Z,101663.55
2023-02-13T11:34:22.894Z,101656.69
2023-02-13T11:37:44.747Z,101663.20
2023-02-13T11:41:13.068Z,101659.53
2023-02-13T11:44:34.957Z,101659.70
2023-02-13T11:47:56.869Z,101652.41
2023-02-13T11:51:18.855Z,101652.56
2023-02-13T11:54:44.909Z,101650.60
2023-02-13T11:58:15.984Z,101646.18
2023-02-13T12:01:38.208Z,101644.67
2023-02-13T12:05:17.774Z,101640.77
2023-02-13T12:08:43.793Z,101636.70
2023-02-13T12:12:07.506Z,101619.31
2023-02-13T12:15:32.813Z,101616.40
2023-02-13T12:18:59.057Z,101605.98
2023-02-13T12:22:36.551Z,101607.64
2023-02-13T12:26:13.471Z,101609.57
2023-02-13T12:29:52.119Z,101607.06
2023-02-13T12:34:01.840Z,101609.30
2023-02-13T12:37:32.815Z,101608.86
2023-02-13T12:40:58.432Z,101611.58
2023-02-13T12:44:32.814Z,101604.26
2023-02-13T12:48:11.656Z,101596.11
2023-02-13T12:52:09.841Z,101594.52
2023-02-13T12:55:45.037Z,101592.07
2023-02-13T12:59:11.908Z,101581.10
2023-02-13T13:03:03.953Z,101578.90
2023-02-13T13:06:49.888Z,101578.59
2023-02-13T13:10:47.359Z,101561.27
2023-02-13T13:14:19.047Z,101550.70
2023-02-13T13:18:02.905Z,101555.98
2023-02-13T13:21:41.902Z,101545.95
2023-02-13T13:25:19.175Z,101539.62
2023-02-13T13:28:43.434Z,101542.27
2023-02-13T13:32:11.450Z,101547.98
2023-02-13T13:35:33.984Z,101540.02
2023-02-13T13:39:04.125Z,101539.38
2023-02-13T13:42:40.191Z,101545.09
2023-02-13T13:46:28.707Z,101546.45
2023-02-13T13:50:01.281Z,101541.64
2023-02-13T13:53:23.628Z,101546.73
2023-02-13T13:57:05.562Z,101544.88
2023-02-13T14:08:55.825Z,101522.68
2023-02-13T14:12:29.978Z,101531.79
2023-02-13T14:15:52.861Z,101532.98
2023-02-13T14:19:37.846Z,101532.14
2023-02-13T14:23:16.387Z,101532.45
2023-02-13T14:26:39.921Z,101514.27
2023-02-13T14:30:05.883Z,101515.28
2023-02-13T14:33:30.561Z,101512.56
2023-02-13T14:37:10.772Z,101514.41
2023-02-13T14:40:48.025Z,101521.11
2023-02-13T14:44:51.291Z,101523.23
2023-02-13T14:48:15.676Z,101519.73
2023-02-13T14:51:46.291Z,101514.63
2023-02-13T14:55:15.676Z,101516.58
2023-02-13T14:58:42.662Z,101515.98
2023-02-13T15:02:16.557Z,101515.65
2023-02-13T15:05:38.718Z,101505.23
2023-02-13T15:09:02.813Z,101503.92
2023-02-13T15:12:33.661Z,101500.58
2023-02-13T15:16:01.957Z,101487.63
2023-02-13T15:19:24.494Z,101493.54
2023-02-13T15:22:47.082Z,101492.40
2023-02-13T15:26:17.297Z,101487.77
2023-02-13T15:30:04.321Z,101467.85
2023-02-13T15:33:48.687Z,101473.70
2023-02-13T15:37:20.956Z,101474.89
2023-02-13T15:40:45.258Z,101471.05
2023-02-13T15:44:07.115Z,101474.94
2023-02-13T15:47:31.846Z,101484.91
2023-02-13T15:50:53.740Z,101483.27
2023-02-13T15:54:26.740Z,101479.02
2023-02-13T15:57:50.143Z,101493.98
2023-02-13T16:01:12.518Z,101495.61
2023-02-13T16:05:51.777Z,101493.36
2023-02-13T16:09:33.905Z,101491.83
2023-02-13T16:12:57.553Z,101504.64
2023-02-13T16:16:19.705Z,101489.80
2023-02-13T16:20:03.679Z,101491.80
2023-02-13T16:23:25.593Z,101482.77
2023-02-13T16:26:52.618Z,101491.42
2023-02-13T16:30:40.328Z,101487.05
2023-02-13T16:34:14.236Z,101495.13
2023-02-13T16:37:37.525Z,101508.92
2023-02-13T16:41:19.672Z,101512.48
2023-02-13T16:44:41.519Z,101522.70
2023-02-13T16:48:03.987Z,101525.00
2023-02-13T16:51:40.357Z,101524.93
2023-02-13T16:55:04.379Z,101526.18
2023-02-13T16:58:27.554Z,101520.58
2023-02-13T17:02:02.638Z,101516.14
2023-02-13T17:05:31.791Z,101516.17
2023-02-13T17:12:32.130Z,101525.90
2023-02-13T17:15:55.336Z,101528.45
2023-02-13T17:19:17.306Z,101519.85
2023-02-13T17:22:56.143Z,101513.86
2023-02-13T17:26:18.031Z,101509.05
2023-02-13T17:29:39.980Z,101497.80
2023-02-13T17:33:08.971Z,101512.67
2023-02-13T17:36:31.186Z,101513.62
2023-02-13T17:39:54.447Z,101512.45
2023-02-13T17:43:18.422Z,101511.80
2023-02-13T17:46:43.308Z,101512.52
2023-02-13T17:50:10.617Z,101509.08
2023-02-13T17:53:32.896Z,101515.76
2023-02-13T17:56:54.970Z,101527.77
2023-02-13T18:00:20.098Z,101538.27
2023-02-13T18:03:41.929Z,101538.65
2023-02-13T18:07:04.800Z,101542.50
2023-02-13T18:10:28.204Z,101545.38
2023-02-13T18:13:50.033Z,101544.42
2023-02-13T18:17:12.262Z,101554.54
2023-02-13T18:20:34.576Z,101558.82
2023-02-13T18:23:56.421Z,101560.88
2023-02-13T18:27:18.420Z,101563.54
2023-02-13T18:30:42.687Z,101562.54
2023-02-13T18:34:04.579Z,101564.92
2023-02-13T18:37:29.543Z,101572.90
2023-02-13T18:40:51.427Z,101569.05
2023-02-13T18:44:23.385Z,101555.98
2023-02-13T18:47:50.618Z,101548.45
2023-02-13T18:51:12.446Z,101560.97
2023-02-13T18:54:34.221Z,101557.64
2023-02-13T18:57:56.559Z,101562.70
2023-02-13T19:01:21.202Z,101563.04
2023-02-13T19:04:43.160Z,101567.03
2023-02-13T19:08:07.015Z,101568.56
2023-02-13T19:11:28.916Z,101570.26
2023-02-13T19:14:50.693Z,101568.86
2023-02-13T19:18:12.558Z,101560.14
2023-02-13T19:21:37.029Z,101566.05
2023-02-13T19:24:58.955Z,101571.95
2023-02-13T19:28:21.237Z,101575.74
2023-02-13T19:31:45.573Z,101578.90
2023-02-13T19:35:07.805Z,101577.80
2023-02-13T19:38:29.864Z,101578.83
2023-02-13T19:41:51.803Z,101577.80
2023-02-13T19:45:13.830Z,101590.47
2023-02-13T19:48:37.294Z,101598.10
2023-02-13T19:51:59.200Z,101596.83
2023-02-13T19:55:24.680Z,101598.05
2023-02-13T19:58:46.538Z,101604.64
2023-02-13T20:02:17.352Z,101602.29
2023-02-13T20:05:40.368Z,101601.41
2023-02-13T20:09:05.980Z,101598.09
2023-02-13T20:12:27.984Z,101595.62
2023-02-13T20:15:49.979Z,101601.16
2023-02-13T20:19:13.843Z,101596.48
2023-02-13T20:22:35.666Z,101592.79
2023-02-13T20:26:03.177Z,101596.77
2023-02-13T20:29:25.055Z,101594.66
2023-02-13T20:32:46.873Z,101598.81
2023-02-13T20:36:10.883Z,101596.69
2023-02-13T20:39:33.143Z,101596.54
2023-02-13T20:42:54.971Z,101595.83
2023-02-13T20:46:17.353Z,101594.41
2023-02-13T20:49:39.315Z,101591.98
2023-02-13T20:53:01.179Z,101587.75
2023-02-13T20:56:26.979Z,101590.48
2023-02-13T20:59:49.112Z,101586.07
2023-02-13T21:03:10.952Z,101587.45
2023-02-13T21:06:37.120Z,101588.45
2023-02-13T21:09:58.891Z,101585.09
2023-02-13T21:13:20.747Z,101581.58
2023-02-13T21:16:43.317Z,101577.55
2023-02-13T21:20:05.861Z,101578.94
2023-02-13T21:23:27.748Z,101576.13
2023-02-13T21:26:52.355Z,101575.41
2023-02-13T21:30:14.285Z,101570.85
2023-02-13T21:33:36.298Z,101573.78
2023-02-13T21:36:58.176Z,101577.05
2023-02-13T21:40:21.085Z,101577.73
2023-02-13T21:43:47.834Z,101576.33
2023-02-13T21:47:09.888Z,101575.28
2023-02-13T21:50:31.760Z,101578.05
2023-02-13T21:53:56.370Z,101575.60
2023-02-13T21:57:18.268Z,101566.00
2023-02-13T22:00:40.101Z,101564.23
2023-02-13T22:04:04.697Z,101562.13
2023-02-13T22:07:26.526Z,101565.59
2023-02-13T22:11:00.554Z,101560.53
2023-02-13T22:14:22.620Z,101554.06
2023-02-13T22:17:44.631Z,101549.86
2023-02-13T22:21:07.727Z,101560.81
2023-02-13T22:24:29.574Z,101564.98
2023-02-13T22:27:52.304Z,101564.99
2023-02-13T22:31:15.002Z,101569.48
2023-02-13T22:34:36.862Z,101574.71
2023-02-13T22:37:58.890Z,101583.94
2023-02-13T22:41:23.676Z,101583.95
2023-02-13T22:44:46.099Z,101586.58
2023-02-13T22:48:09.039Z,101579.29
2023-02-13T22:51:33.449Z,101576.16
2023-02-13T22:54:56.339Z,101573.91
2023-02-13T22:58:19.550Z,101577.55
2023-02-13T23:01:41.316Z,101570.76
2023-02-13T23:05:03.420Z,101561.52
2023-02-13T23:08:25.390Z,101560.80
2023-02-13T23:12:06.299Z,101564.98
2023-02-13T23:15:28.295Z,101570.70
2023-02-13T23:18:51.930Z,101568.44
2023-02-13T23:22:13.926Z,101573.46
2023-02-13T23:25:37.657Z,101573.45
2023-02-13T23:28:59.419Z,101578.11
2023-02-13T23:32:21.324Z,101576.34
2023-02-13T23:35:43.197Z,101583.09
2023-02-13T23:39:04.999Z,101584.79
2023-02-13T23:42:26.993Z,101583.40
2023-02-13T23:45:49.802Z,101578.98
2023-02-13T23:49:11.565Z,101570.96
2023-02-13T23:52:33.375Z,101566.41
2023-02-13T23:55:55.306Z,101567.06
2023-02-13T23:59:20.616Z,101564.92
